createdAt,value
2018-10-03T00:01:13.724Z,12.80
2018-10-03T00:03:42.984Z,12.90
2018-10-03T00:06:12.216Z,12.90
2018-10-03T00:08:41.512Z,12.80
2018-10-03T00:11:10.735Z,12.80
2018-10-03T00:13:39.964Z,12.90
2018-10-03T00:16:09.431Z,12.90
2018-10-03T00:18:38.677Z,12.80
2018-10-03T00:21:08.180Z,12.90
2018-10-03T00:23:37.433Z,13.00
2018-10-03T00:26:06.961Z,13.00
2018-10-03T00:28:36.386Z,13.00
2018-10-03T00:31:06.252Z,13.00
2018-10-03T00:33:35.481Z,12.90
2018-10-03T00:36:04.906Z,12.90
2018-10-03T00:38:34.160Z,12.90
2018-10-03T00:41:03.377Z,12.90
2018-10-03T00:43:32.600Z,12.90
2018-10-03T00:46:01.888Z,12.90
2018-10-03T00:48:31.108Z,12.90
2018-10-03T00:51:00.356Z,12.90
2018-10-03T00:53:29.800Z,12.90
2018-10-03T00:55:59.049Z,13.00
2018-10-03T00:58:28.332Z,13.00
2018-10-03T01:00:57.691Z,13.00
2018-10-03T01:03:26.915Z,13.00
2018-10-03T01:05:56.123Z,13.10
2018-10-03T01:08:25.344Z,13.10
2018-10-03T01:10:54.568Z,13.10
2018-10-03T01:13:23.789Z,13.00
2018-10-03T01:15:53.368Z,13.00
2018-10-03T01:18:22.696Z,13.00
2018-10-03T01:20:51.916Z,13.00
2018-10-03T01:23:21.158Z,13.00
2018-10-03T01:25:50.370Z,12.90
2018-10-03T01:28:19.732Z,12.90
2018-10-03T01:30:48.988Z,13.00
2018-10-03T01:33:18.201Z,13.00
2018-10-03T01:35:47.424Z,13.00
2018-10-03T01:38:16.750Z,13.10
2018-10-03T01:40:46.132Z,13.10
2018-10-03T01:43:15.416Z,13.00
2018-10-03T01:45:44.660Z,13.00
2018-10-03T01:48:13.876Z,13.00
2018-10-03T01:50:43.117Z,13.10
2018-10-03T01:53:12.853Z,13.00
2018-10-03T01:55:42.380Z,13.00
2018-10-03T01:58:11.591Z,13.10
2018-10-03T02:00:41.172Z,13.10
2018-10-03T02:03:12.916Z,13.10
2018-10-03T02:05:42.156Z,13.00
2018-10-03T02:08:11.356Z,13.10
2018-10-03T02:10:40.629Z,13.20
2018-10-03T02:13:09.864Z,13.10
2018-10-03T02:15:39.064Z,13.10
2018-10-03T02:18:08.288Z,13.00
2018-10-03T02:20:37.821Z,13.10
2018-10-03T02:23:07.412Z,13.10
2018-10-03T02:25:36.924Z,13.10
2018-10-03T02:28:06.208Z,13.10
2018-10-03T02:30:35.425Z,13.10
2018-10-03T02:33:04.683Z,13.20
2018-10-03T02:35:33.946Z,13.20
2018-10-03T02:38:03.229Z,13.20
2018-10-03T02:40:32.458Z,13.20
2018-10-03T02:43:01.784Z,13.10
2018-10-03T02:45:31.012Z,13.20
2018-10-03T02:48:00.236Z,13.10
2018-10-03T02:50:29.541Z,13.20
2018-10-03T02:52:58.760Z,13.30
2018-10-03T02:55:27.972Z,13.30
2018-10-03T02:57:57.274Z,13.30
2018-10-03T03:00:26.492Z,13.30
2018-10-03T03:02:55.823Z,13.30
2018-10-03T03:05:25.587Z,13.20
2018-10-03T03:07:54.817Z,13.30
2018-10-03T03:10:24.035Z,13.30
2018-10-03T03:12:53.280Z,13.20
2018-10-03T03:15:22.480Z,13.30
2018-10-03T03:17:51.934Z,13.30
2018-10-03T03:20:21.313Z,13.30
2018-10-03T03:22:51.116Z,13.40
2018-10-03T03:25:20.340Z,13.30
2018-10-03T03:27:49.656Z,13.30
2018-10-03T03:30:18.976Z,13.30
2018-10-03T03:32:48.194Z,13.30
2018-10-03T03:35:17.698Z,13.20
2018-10-03T03:37:46.932Z,13.20
2018-10-03T03:40:16.168Z,13.20
2018-10-03T03:42:45.403Z,13.20
2018-10-03T03:45:14.622Z,13.10
2018-10-03T03:47:44.069Z,13.30
2018-10-03T03:50:13.704Z,13.20
2018-10-03T03:52:43.018Z,13.20
2018-10-03T03:55:12.233Z,13.30
2018-10-03T03:57:41.660Z,13.20
2018-10-03T04:00:10.998Z,13.20
2018-10-03T04:02:40.204Z,13.20
2018-10-03T04:05:09.488Z,13.30
2018-10-03T04:07:38.736Z,13.40
2018-10-03T04:10:07.968Z,13.30
2018-10-03T04:12:37.677Z,13.30
2018-10-03T04:15:06.967Z,13.30
2018-10-03T04:17:36.261Z,13.30
2018-10-03T04:20:05.500Z,13.40
2018-10-03T04:22:34.733Z,13.40
2018-10-03T04:25:04.348Z,13.40
2018-10-03T04:27:33.596Z,13.50
2018-10-03T04:30:02.839Z,13.50
2018-10-03T04:32:32.060Z,13.50
2018-10-03T04:35:01.419Z,13.50
2018-10-03T04:37:30.638Z,13.40
2018-10-03T04:39:59.856Z,13.40
2018-10-03T04:42:29.209Z,13.40
2018-10-03T04:44:58.433Z,13.40
2018-10-03T04:47:27.660Z,13.50
2018-10-03T04:49:57.060Z,13.40
2018-10-03T04:52:26.305Z,13.40
2018-10-03T04:54:55.528Z,13.30
2018-10-03T04:57:25.128Z,13.40
2018-10-03T04:59:54.365Z,13.40
2018-10-03T05:02:23.603Z,13.40
2018-10-03T05:04:52.932Z,13.40
2018-10-03T05:07:22.148Z,13.50
2018-10-03T05:09:51.405Z,13.50
2018-10-03T05:12:20.636Z,13.50
2018-10-03T05:14:49.883Z,13.50
2018-10-03T05:17:19.101Z,13.50
2018-10-03T05:19:48.409Z,13.50
2018-10-03T05:22:17.647Z,13.40
2018-10-03T05:24:46.861Z,13.50
2018-10-03T05:27:16.576Z,13.40
2018-10-03T05:29:45.793Z,13.40
2018-10-03T05:32:15.008Z,13.40
2018-10-03T05:34:44.312Z,13.50
2018-10-03T05:37:13.536Z,13.50
2018-10-03T05:39:42.819Z,13.50
2018-10-03T05:42:12.055Z,13.40
2018-10-03T05:44:41.307Z,13.50
2018-10-03T05:47:10.524Z,13.50
2018-10-03T05:49:39.768Z,13.50
2018-10-03T05:52:08.996Z,13.50
2018-10-03T05:54:38.301Z,13.40
2018-10-03T05:57:07.472Z,13.40
2018-10-03T05:59:36.703Z,13.40
2018-10-03T06:02:06.012Z,13.40
2018-10-03T06:04:35.645Z,13.40
2018-10-03T06:07:04.885Z,13.40
2018-10-03T06:09:34.106Z,13.40
2018-10-03T06:12:03.384Z,13.40
2018-10-03T06:14:32.600Z,13.40
2018-10-03T06:17:01.850Z,13.40
2018-10-03T06:19:31.086Z,13.50
2018-10-03T06:22:00.372Z,13.50
2018-10-03T06:24:29.604Z,13.60
2018-10-03T06:26:58.963Z,13.60
2018-10-03T06:29:28.528Z,13.70
2018-10-03T06:31:57.940Z,13.80
2018-10-03T06:34:27.344Z,13.70
2018-10-03T06:36:56.571Z,13.60
2018-10-03T06:39:26.028Z,13.70
2018-10-03T06:41:55.221Z,13.70
2018-10-03T06:44:24.561Z,13.70
2018-10-03T06:46:53.779Z,13.70
2018-10-03T06:49:23.532Z,13.70
2018-10-03T06:51:52.763Z,13.70
2018-10-03T06:54:21.986Z,13.70
2018-10-03T06:56:51.228Z,13.80
2018-10-03T06:59:20.452Z,13.80
2018-10-03T07:01:49.765Z,14.00
2018-10-03T07:04:19.261Z,14.00
2018-10-03T07:06:48.475Z,14.00
2018-10-03T07:09:17.692Z,14.00
2018-10-03T07:11:47.499Z,14.10
2018-10-03T07:14:16.753Z,14.20
2018-10-03T07:16:45.964Z,14.30
2018-10-03T07:19:15.203Z,14.30
2018-10-03T07:21:44.580Z,14.30
2018-10-03T07:24:13.807Z,14.40
2018-10-03T07:26:43.050Z,14.40
2018-10-03T07:29:12.553Z,14.30
2018-10-03T07:31:42.180Z,14.30
2018-10-03T07:34:11.785Z,14.30
2018-10-03T07:36:41.032Z,14.50
2018-10-03T07:39:10.922Z,14.60
2018-10-03T07:41:40.178Z,14.60
2018-10-03T07:44:09.415Z,14.50
2018-10-03T07:46:39.640Z,14.50
2018-10-03T07:49:09.724Z,14.50
2018-10-03T07:51:38.941Z,14.50
2018-10-03T07:54:08.169Z,14.60
2018-10-03T07:56:37.545Z,14.60
2018-10-03T07:59:06.848Z,14.70
2018-10-03T08:01:36.095Z,14.70
2018-10-03T08:04:05.548Z,14.80
2018-10-03T08:06:34.764Z,14.90
2018-10-03T08:09:05.061Z,15.00
2018-10-03T08:11:34.344Z,15.00
2018-10-03T08:14:03.578Z,15.10
2018-10-03T08:16:33.020Z,15.10
2018-10-03T08:19:02.313Z,15.10
2018-10-03T08:21:31.613Z,15.20
2018-10-03T08:24:00.856Z,15.20
2018-10-03T08:26:30.224Z,15.30
2018-10-03T08:28:59.450Z,15.40
2018-10-03T08:31:28.689Z,15.50
2018-10-03T08:33:58.471Z,15.70
2018-10-03T08:36:27.697Z,15.80
2018-10-03T08:38:56.932Z,15.90
2018-10-03T08:41:27.204Z,16.00
2018-10-03T08:43:56.488Z,16.00
2018-10-03T08:46:25.705Z,15.90
2018-10-03T08:48:55.116Z,15.90
2018-10-03T08:51:24.336Z,15.90
2018-10-03T08:53:53.582Z,15.90
2018-10-03T08:56:22.856Z,16.00
2018-10-03T08:58:52.090Z,16.00
2018-10-03T09:01:21.363Z,15.90
2018-10-03T09:03:51.144Z,15.80
2018-10-03T09:06:20.377Z,15.90
2018-10-03T09:08:49.608Z,15.90
2018-10-03T09:11:19.136Z,15.90
2018-10-03T09:13:48.556Z,15.90
2018-10-03T09:16:17.785Z,15.90
2018-10-03T09:18:47.024Z,15.90
2018-10-03T09:21:16.309Z,16.00
2018-10-03T09:23:45.477Z,16.00
2018-10-03T09:26:14.995Z,16.10
2018-10-03T09:28:44.229Z,16.30
2018-10-03T09:31:13.611Z,16.30
2018-10-03T09:33:42.846Z,16.30
2018-10-03T09:36:12.484Z,16.20
2018-10-03T09:38:41.722Z,16.20
2018-10-03T09:41:10.953Z,16.10
2018-10-03T09:43:40.297Z,16.20
2018-10-03T09:46:09.685Z,16.30
2018-10-03T09:48:39.484Z,16.40
2018-10-03T09:51:08.702Z,16.50
2018-10-03T09:53:37.955Z,16.50
2018-10-03T09:56:07.552Z,16.60
2018-10-03T09:58:36.849Z,16.70
2018-10-03T10:01:39.794Z,16.70
2018-10-03T10:04:09.072Z,16.90
2018-10-03T10:06:38.396Z,16.90
2018-10-03T10:09:09.528Z,16.70
2018-10-03T10:11:38.891Z,16.70
2018-10-03T10:14:08.124Z,16.70
2018-10-03T10:16:37.372Z,16.90
2018-10-03T10:19:06.888Z,17.20
2018-10-03T10:21:36.192Z,17.40
2018-10-03T10:24:05.460Z,17.30
2018-10-03T10:26:34.696Z,17.00
2018-10-03T10:29:03.930Z,16.90
2018-10-03T10:31:33.537Z,17.10
2018-10-03T10:34:02.835Z,17.80
2018-10-03T10:36:34.029Z,18.20
2018-10-03T10:39:03.712Z,18.00
2018-10-03T10:41:33.049Z,17.70
2018-10-03T10:44:02.231Z,17.50
2018-10-03T10:46:31.499Z,17.90
2018-10-03T10:49:00.676Z,18.10
2018-10-03T10:51:30.359Z,18.20
2018-10-03T10:53:59.614Z,18.60
2018-10-03T10:56:28.849Z,18.60
2018-10-03T10:58:58.392Z,18.70
2018-10-03T11:01:28.976Z,18.70
2018-10-03T11:03:58.514Z,18.90
2018-10-03T11:06:29.214Z,19.10
2018-10-03T11:08:58.668Z,19.00
2018-10-03T11:11:29.191Z,19.00
2018-10-03T11:13:58.883Z,19.10
2018-10-03T11:16:28.275Z,18.80
2018-10-03T11:18:57.552Z,18.70
2018-10-03T11:21:26.857Z,19.00
2018-10-03T11:23:58.229Z,19.40
2018-10-03T11:26:27.436Z,19.50
2018-10-03T11:28:56.704Z,19.60
2018-10-03T11:31:26.100Z,19.70
2018-10-03T11:33:55.296Z,20.30
2018-10-03T11:36:25.107Z,20.60
2018-10-03T11:38:54.319Z,20.80
2018-10-03T11:41:23.565Z,20.80
2018-10-03T11:43:52.890Z,20.50
2018-10-03T11:46:22.226Z,20.40
2018-10-03T11:48:51.452Z,20.30
2018-10-03T11:51:20.753Z,20.30
2018-10-03T11:53:49.976Z,20.10
2018-10-03T11:56:19.233Z,20.00
2018-10-03T11:58:48.769Z,20.60
2018-10-03T12:01:18.282Z,21.60
2018-10-03T12:03:47.619Z,21.50
2018-10-03T12:06:16.956Z,21.00
2018-10-03T12:08:46.556Z,20.90
2018-10-03T12:11:16.134Z,21.10
2018-10-03T12:13:45.540Z,21.50
2018-10-03T12:16:14.742Z,21.90
2018-10-03T12:18:43.994Z,22.40
2018-10-03T12:21:13.721Z,22.40
2018-10-03T12:23:42.962Z,22.20
2018-10-03T12:26:12.617Z,22.50
2018-10-03T12:28:42.144Z,22.70
2018-10-03T12:31:12.708Z,23.00
2018-10-03T12:33:41.986Z,23.00
2018-10-03T12:36:11.200Z,23.00
2018-10-03T12:38:40.566Z,23.10
2018-10-03T12:41:09.904Z,23.20
2018-10-03T12:43:39.388Z,23.60
2018-10-03T12:46:08.670Z,24.10
2018-10-03T12:48:38.110Z,24.00
2018-10-03T12:51:07.352Z,24.30
2018-10-03T12:53:36.835Z,24.60
2018-10-03T12:56:06.423Z,24.80
2018-10-03T12:58:35.907Z,24.70
2018-10-03T13:01:07.447Z,24.70
2018-10-03T13:03:37.106Z,24.60
2018-10-03T13:06:06.837Z,24.10
2018-10-03T13:08:36.956Z,23.70
2018-10-03T13:11:07.689Z,23.30
2018-10-03T13:13:37.104Z,23.00
2018-10-03T13:16:06.622Z,22.80
2018-10-03T13:18:35.831Z,22.70
2018-10-03T13:21:05.380Z,22.60
2018-10-03T13:23:34.879Z,22.80
2018-10-03T13:26:05.273Z,23.30
2018-10-03T13:28:34.544Z,23.80
2018-10-03T13:31:03.833Z,23.60
2018-10-03T13:33:33.084Z,22.90
2018-10-03T13:36:02.349Z,22.20
2018-10-03T13:38:31.575Z,21.70
2018-10-03T13:41:00.918Z,21.40
2018-10-03T13:43:30.113Z,21.30
2018-10-03T13:45:59.852Z,21.10
2018-10-03T13:48:29.512Z,21.00
2018-10-03T13:50:58.795Z,20.90
2018-10-03T13:53:29.141Z,21.50
2018-10-03T13:55:58.454Z,21.90
2018-10-03T13:58:27.654Z,21.90
2018-10-03T14:00:59.292Z,21.60
2018-10-03T14:03:28.525Z,21.30
2018-10-03T14:05:59.043Z,21.20
2018-10-03T14:08:28.504Z,21.50
2018-10-03T14:10:57.955Z,21.60
2018-10-03T14:13:27.212Z,21.20
2018-10-03T14:15:56.491Z,20.90
2018-10-03T14:18:25.790Z,20.80
2018-10-03T14:20:55.017Z,21.10
2018-10-03T14:23:24.454Z,21.80
2018-10-03T14:25:53.688Z,22.10
2018-10-03T14:28:24.328Z,22.30
2018-10-03T14:30:53.968Z,22.60
2018-10-03T14:33:23.505Z,22.90
2018-10-03T14:35:52.764Z,22.80
2018-10-03T14:38:22.569Z,22.90
2018-10-03T14:40:51.776Z,23.10
2018-10-03T14:43:22.136Z,23.60
2018-10-03T14:45:51.405Z,23.70
2018-10-03T14:48:22.701Z,23.30
2018-10-03T14:50:52.235Z,23.70
2018-10-03T14:53:21.557Z,24.00
2018-10-03T14:55:50.916Z,23.90
2018-10-03T14:58:20.527Z,23.80
2018-10-03T15:00:51.054Z,23.80
2018-10-03T15:03:20.513Z,23.80
2018-10-03T15:05:49.920Z,23.80
2018-10-03T15:08:19.205Z,24.00
2018-10-03T15:10:48.497Z,24.00
2018-10-03T15:13:18.013Z,23.20
2018-10-03T15:15:47.292Z,22.80
2018-10-03T15:18:16.728Z,22.30
2018-10-03T15:20:47.264Z,22.20
2018-10-03T15:23:17.755Z,22.00
2018-10-03T15:25:47.008Z,21.80
2018-10-03T15:28:16.397Z,21.60
2018-10-03T15:30:45.621Z,21.40
2018-10-03T15:33:14.859Z,21.30
2018-10-03T15:35:44.474Z,21.10
2018-10-03T15:38:13.702Z,20.90
2018-10-03T15:40:43.529Z,20.80
2018-10-03T15:43:16.812Z,20.50
2018-10-03T15:45:46.052Z,20.40
2018-10-03T15:48:15.341Z,20.30
2018-10-03T15:50:44.710Z,20.10
2018-10-03T15:53:15.223Z,19.90
2018-10-03T15:55:44.697Z,19.70
2018-10-03T15:58:14.393Z,19.60
2018-10-03T16:00:43.837Z,19.40
2018-10-03T16:03:13.057Z,19.20
2018-10-03T16:05:42.401Z,19.10
2018-10-03T16:08:11.649Z,19.00
2018-10-03T16:10:40.914Z,18.80
2018-10-03T16:13:11.177Z,18.80
2018-10-03T16:15:40.748Z,18.60
2018-10-03T16:18:10.064Z,18.50
2018-10-03T16:20:39.718Z,18.40
2018-10-03T16:23:11.134Z,18.30
2018-10-03T16:25:40.780Z,18.20
2018-10-03T16:28:11.289Z,18.10
2018-10-03T16:30:40.902Z,18.10
2018-10-03T16:33:10.217Z,17.90
2018-10-03T16:35:39.452Z,17.80
2018-10-03T16:38:08.932Z,17.80
2018-10-03T16:40:38.407Z,17.70
2018-10-03T16:43:07.693Z,17.70
2018-10-03T16:45:38.223Z,17.90
2018-10-03T16:48:07.916Z,17.80
2018-10-03T16:50:37.932Z,17.60
2018-10-03T16:53:07.900Z,17.50
2018-10-03T16:55:38.223Z,17.40
2018-10-03T16:58:07.900Z,17.40
2018-10-03T17:00:38.534Z,17.40
2018-10-03T17:03:10.093Z,17.20
2018-10-03T17:05:39.352Z,17.00
2018-10-03T17:08:08.724Z,16.90
2018-10-03T17:10:39.320Z,16.90
2018-10-03T17:13:09.336Z,16.80
2018-10-03T17:15:38.968Z,16.70
2018-10-03T17:18:08.372Z,16.70
2018-10-03T17:20:39.680Z,16.60
2018-10-03T17:23:08.912Z,16.50
2018-10-03T17:25:39.116Z,16.40
2018-10-03T17:28:08.681Z,16.30
2018-10-03T17:30:37.997Z,16.20
2018-10-03T17:33:08.028Z,16.10
2018-10-03T17:35:37.516Z,16.00
2018-10-03T17:38:07.402Z,15.90
2018-10-03T17:40:36.620Z,15.90
2018-10-03T17:43:08.236Z,15.80
2018-10-03T17:45:38.989Z,15.70
2018-10-03T17:48:08.268Z,15.70
2018-10-03T17:50:37.984Z,15.60
2018-10-03T17:53:07.572Z,15.50
2018-10-03T17:55:36.822Z,15.50
2018-10-03T17:58:06.642Z,15.50
2018-10-03T18:00:39.706Z,15.50
2018-10-03T18:03:10.369Z,15.40
2018-10-03T18:05:40.738Z,15.40
2018-10-03T18:08:11.349Z,15.30
2018-10-03T18:10:40.985Z,15.30
2018-10-03T18:13:10.476Z,15.20
2018-10-03T18:15:40.042Z,15.20
2018-10-03T18:18:09.382Z,15.10
2018-10-03T18:20:38.736Z,15.10
2018-10-03T18:23:08.638Z,15.00
2018-10-03T18:25:39.146Z,14.90
2018-10-03T18:28:08.439Z,14.80
2018-10-03T18:30:39.308Z,14.80
2018-10-03T18:33:08.885Z,14.70
2018-10-03T18:35:38.204Z,14.70
2018-10-03T18:38:07.579Z,14.60
2018-10-03T18:40:38.951Z,14.60
2018-10-03T18:43:09.688Z,14.50
2018-10-03T18:45:39.241Z,14.50
2018-10-03T18:48:08.884Z,14.50
2018-10-03T18:50:38.633Z,14.40
2018-10-03T18:53:11.079Z,14.40
2018-10-03T18:55:40.340Z,14.40
2018-10-03T18:58:10.203Z,14.30
2018-10-03T19:00:39.496Z,14.30
2018-10-03T19:03:09.017Z,14.20
2018-10-03T19:05:38.413Z,14.20
2018-10-03T19:08:07.697Z,14.10
2018-10-03T19:10:38.277Z,14.10
2018-10-03T19:13:07.829Z,14.00
2018-10-03T19:15:38.360Z,14.00
2018-10-03T19:18:07.688Z,14.00
2018-10-03T19:20:36.960Z,14.00
2018-10-03T19:23:07.471Z,13.90
2018-10-03T19:25:36.870Z,13.90
2018-10-03T19:28:06.581Z,13.90
2018-10-03T19:30:35.987Z,13.90
2018-10-03T19:33:05.345Z,13.90
2018-10-03T19:35:34.636Z,13.80
2018-10-03T19:38:03.834Z,13.80
2018-10-03T19:40:33.213Z,13.70
2018-10-03T19:43:02.523Z,13.70
2018-10-03T19:45:32.132Z,13.60
2018-10-03T19:48:01.694Z,13.60
2018-10-03T19:50:31.016Z,13.60
2018-10-03T19:53:00.319Z,13.50
2018-10-03T19:55:29.579Z,13.50
2018-10-03T19:57:58.920Z,13.40
2018-10-03T20:00:28.260Z,13.40
2018-10-03T20:02:57.549Z,13.40
2018-10-03T20:05:26.827Z,13.40
2018-10-03T20:07:57.432Z,13.30
2018-10-03T20:10:27.213Z,13.30
2018-10-03T20:12:56.581Z,13.30
2018-10-03T20:15:25.881Z,13.20
2018-10-03T20:17:56.446Z,13.20
2018-10-03T20:20:27.100Z,13.20
2018-10-03T20:22:56.532Z,13.10
2018-10-03T20:25:25.859Z,13.10
2018-10-03T20:27:56.381Z,13.00
2018-10-03T20:30:25.661Z,13.00
2018-10-03T20:32:55.209Z,12.90
2018-10-03T20:35:24.749Z,12.90
2018-10-03T20:37:54.180Z,12.80
2018-10-03T20:40:24.191Z,12.80
2018-10-03T20:42:53.700Z,12.70
2018-10-03T20:45:24.233Z,12.70
2018-10-03T20:47:55.108Z,12.70
2018-10-03T20:50:25.196Z,12.70
2018-10-03T20:52:54.440Z,12.60
2018-10-03T20:55:24.140Z,12.60
2018-10-03T20:57:53.432Z,12.50
2018-10-03T21:00:23.780Z,12.50
2018-10-03T21:02:53.092Z,12.40
2018-10-03T21:05:22.325Z,12.50
2018-10-03T21:07:51.616Z,12.40
2018-10-03T21:10:20.916Z,12.40
2018-10-03T21:12:50.168Z,12.40
2018-10-03T21:15:19.393Z,12.30
2018-10-03T21:17:49.061Z,12.30
2018-10-03T21:20:18.767Z,12.30
2018-10-03T21:22:47.996Z,12.20
2018-10-03T21:25:17.417Z,12.20
2018-10-03T21:27:47.180Z,12.20
2018-10-03T21:30:16.596Z,12.10
2018-10-03T21:32:45.871Z,12.10
2018-10-03T21:35:15.121Z,12.20
2018-10-03T21:37:44.477Z,12.10
2018-10-03T21:40:15.241Z,12.10
2018-10-03T21:42:44.944Z,12.10
2018-10-03T21:45:14.596Z,12.00
2018-10-03T21:47:44.293Z,12.00
2018-10-03T21:50:13.528Z,12.00
2018-10-03T21:52:42.784Z,11.90
2018-10-03T21:55:12.048Z,11.90
2018-10-03T21:57:41.269Z,11.80
2018-10-03T22:00:10.628Z,11.80
2018-10-03T22:02:40.475Z,11.80
2018-10-03T22:05:10.305Z,11.80
2018-10-03T22:07:40.195Z,11.70
2018-10-03T22:10:09.491Z,11.70
2018-10-03T22:12:38.712Z,11.70
2018-10-03T22:15:08.040Z,11.70
2018-10-03T22:17:40.237Z,11.60
2018-10-03T22:20:10.286Z,11.70
2018-10-03T22:22:39.654Z,11.60
2018-10-03T22:25:09.411Z,11.60
2018-10-03T22:27:38.831Z,11.50
2018-10-03T22:30:08.136Z,11.50
2018-10-03T22:32:37.408Z,11.40
2018-10-03T22:35:06.677Z,11.40
2018-10-03T22:37:35.896Z,11.30
2018-10-03T22:40:05.201Z,11.30
2018-10-03T22:42:34.440Z,11.30
2018-10-03T22:45:04.016Z,11.30
2018-10-03T22:47:33.733Z,11.20
2018-10-03T22:50:03.200Z,11.20
2018-10-03T22:52:32.412Z,11.20
2018-10-03T22:55:01.720Z,11.20
2018-10-03T22:57:30.950Z,11.10
2018-10-03T23:00:00.173Z,11.10
2018-10-03T23:02:29.416Z,11.10
2018-10-03T23:04:58.652Z,11.10
2018-10-03T23:07:28.077Z,11.10
2018-10-03T23:09:57.451Z,11.00
2018-10-03T23:12:26.669Z,11.00
2018-10-03T23:14:55.892Z,10.90
2018-10-03T23:17:25.224Z,10.90
2018-10-03T23:19:54.456Z,10.90
2018-10-03T23:22:23.703Z,10.80
2018-10-03T23:24:52.967Z,10.80
2018-10-03T23:27:22.194Z,10.80
2018-10-03T23:29:51.420Z,10.80
2018-10-03T23:32:21.147Z,10.70
2018-10-03T23:34:50.376Z,10.70
2018-10-03T23:37:19.556Z,10.70
2018-10-03T23:39:48.776Z,10.70
2018-10-03T23:42:17.964Z,10.70
2018-10-03T23:44:47.147Z,10.60
2018-10-03T23:47:17.316Z,10.60
2018-10-03T23:49:46.510Z,10.50
2018-10-03T23:52:15.712Z,10.50
2018-10-03T23:54:45.081Z,10.50
2018-10-03T23:57:14.315Z,10.50
2018-10-03T23:59:43.478Z,10.40
